Time;durP1;ratioP1;P1;durP2;ratioP2;P2;SDS_P1;SDS_P2;PMS_P1;PMS_P2;Temp;Humidity;BMP_temperature;BMP_pressure;BME280_temperature;BME280_humidity;BME280_pressure;Samples;Min_cycle;Max_cycle;Signal;HPM_P1;HPM_P2
2022/09/27 00:00:59;;;;;;;16.02;9.45;;;18.60;99.90;;;;;;5029318;28;20202;-72
2022/09/27 00:03:31;;;;;;;16.48;8.88;;;18.90;99.90;;;;;;5025469;28;20646;-71
2022/09/27 00:06:07;;;;;;;15.38;8.40;;;18.90;99.90;;;;;;5030765;28;20848;-70
2022/09/27 00:08:38;;;;;;;15.65;7.88;;;19.00;99.90;;;;;;5026994;28;20186;-70
2022/09/27 00:11:14;;;;;;;11.70;7.78;;;19.00;99.90;;;;;;5031673;28;20196;-72
2022/09/27 00:13:45;;;;;;;10.32;6.70;;;19.20;99.90;;;;;;5027921;28;20217;-72
2022/09/27 00:16:16;;;;;;;11.02;7.00;;;19.30;99.90;;;;;;5031397;28;20200;-75
2022/09/27 00:18:47;;;;;;;9.48;6.75;;;19.30;99.90;;;;;;5031030;28;20668;-72
2022/09/27 00:21:17;;;;;;;11.35;6.15;;;19.20;99.90;;;;;;5030607;28;20263;-76
2022/09/27 00:23:48;;;;;;;11.70;5.20;;;19.20;99.90;;;;;;5023780;28;20191;-70
2022/09/27 00:26:21;;;;;;;7.90;4.82;;;19.10;99.90;;;;;;5031863;28;20336;-72
2022/09/27 00:28:52;;;;;;;10.02;5.10;;;19.00;99.90;;;;;;5032295;28;20216;-73
2022/09/27 00:31:24;;;;;;;10.88;5.50;;;19.00;99.90;;;;;;5029479;28;20598;-71
2022/09/27 00:33:56;;;;;;;12.90;5.68;;;19.00;99.90;;;;;;5029346;28;20578;-73
2022/09/27 00:36:27;;;;;;;10.52;5.78;;;19.10;99.90;;;;;;5030567;28;20252;-73
2022/09/27 00:38:58;;;;;;;7.43;4.70;;;19.10;99.90;;;;;;5029002;28;20285;-71
2022/09/27 00:41:33;;;;;;;10.23;5.88;;;19.10;99.90;;;;;;5030695;28;20276;-72
2022/09/27 00:44:06;;;;;;;7.55;4.53;;;19.10;99.90;;;;;;5030669;28;20548;-74
2022/09/27 00:46:41;;;;;;;10.48;4.68;;;19.10;99.90;;;;;;5035220;28;20197;-73
2022/09/27 00:49:20;;;;;;;9.73;5.05;;;19.10;99.90;;;;;;5032654;28;20194;-72
2022/09/27 00:51:54;;;;;;;8.10;4.85;;;19.20;99.90;;;;;;5035404;28;20194;-72
2022/09/27 00:54:26;;;;;;;9.50;5.68;;;19.20;99.90;;;;;;5034998;28;20228;-75
2022/09/27 00:57:00;;;;;;;10.30;5.50;;;19.30;99.90;;;;;;5034143;28;20244;-71
2022/09/27 00:59:35;;;;;;;9.10;5.60;;;19.40;99.90;;;;;;5039037;28;20216;-72
2022/09/27 01:02:08;;;;;;;9.85;5.07;;;19.50;99.90;;;;;;5033083;28;20204;-71
2022/09/27 01:04:41;;;;;;;6.38;4.68;;;19.60;99.90;;;;;;5031436;28;20212;-71
2022/09/27 01:07:12;;;;;;;7.55;4.97;;;19.70;99.90;;;;;;5033060;28;20256;-71
2022/09/27 01:09:43;;;;;;;8.82;6.00;;;19.60;99.90;;;;;;5036006;28;20646;-71
2022/09/27 01:12:24;;;;;;;17.60;6.75;;;19.70;99.90;;;;;;5036239;28;20223;-72
2022/09/27 01:15:10;;;;;;;10.63;6.70;;;19.80;99.90;;;;;;5029568;28;20190;-71
2022/09/27 01:17:54;;;;;;;8.98;6.40;;;19.90;99.90;;;;;;5035614;28;20190;-71
2022/09/27 01:21:07;;;;;;;11.82;7.53;;;20.10;99.90;;;;;;5035523;28;20197;-72
2022/09/27 01:23:57;;;;;;;13.07;6.22;;;20.20;99.90;;;;;;5032808;28;20198;-70
2022/09/27 01:26:44;;;;;;;11.15;6.63;;;20.20;99.90;;;;;;5035716;28;20194;-72
2022/09/27 01:29:25;;;;;;;12.88;6.20;;;20.20;99.90;;;;;;5035257;28;20244;-73
2022/09/27 01:32:04;;;;;;;9.52;5.70;;;20.20;99.90;;;;;;5032105;28;20187;-73
2022/09/27 01:34:45;;;;;;;8.95;5.75;;;20.30;99.90;;;;;;5035134;28;20682;-73
2022/09/27 01:37:24;;;;;;;8.93;5.63;;;20.40;99.90;;;;;;5034594;28;20320;-71
2022/09/27 01:40:03;;;;;;;8.43;5.35;;;20.50;99.90;;;;;;5028976;28;20649;-73
2022/09/27 01:42:39;;;;;;;7.43;4.60;;;20.60;99.90;;;;;;5035318;28;20226;-72
2022/09/27 01:45:16;;;;;;;7.75;4.13;;;20.70;99.90;;;;;;5035496;28;20194;-71
2022/09/27 01:47:52;;;;;;;7.65;5.07;;;20.90;99.90;;;;;;5034715;28;20193;-71
2022/09/27 01:50:28;;;;;;;7.60;5.35;;;21.00;99.90;;;;;;5035041;28;20186;-71
2022/09/27 01:53:04;;;;;;;7.47;4.68;;;21.10;99.90;;;;;;5027515;28;20216;-73
2022/09/27 01:55:38;;;;;;;8.63;4.68;;;21.00;99.90;;;;;;5034564;28;20278;-70
2022/09/27 01:58:14;;;;;;;6.80;3.97;;;21.00;99.90;;;;;;5035322;28;20197;-69
2022/09/27 02:00:48;;;;;;;4.00;3.13;;;20.80;99.90;;;;;;5035482;28;20296;-72
2022/09/27 02:03:26;;;;;;;5.82;2.65;;;21.10;99.90;;;;;;5034814;28;20190;-72
2022/09/27 02:06:02;;;;;;;5.40;2.72;;;21.50;99.90;;;;;;5035088;28;20195;-71
2022/09/27 02:08:38;;;;;;;3.90;2.78;;;21.80;99.90;;;;;;5035048;28;20198;-70
2022/09/27 02:11:13;;;;;;;4.35;2.88;;;21.70;99.90;;;;;;5027805;28;20186;-71
2022/09/27 02:13:49;;;;;;;6.07;3.55;;;21.60;99.90;;;;;;5034420;28;20301;-70
2022/09/27 02:16:30;;;;;;;4.65;3.58;;;21.50;99.90;;;;;;5035223;28;20194;-70
2022/09/27 02:19:10;;;;;;;6.47;3.72;;;21.40;99.90;;;;;;5034433;28;20194;-69
2022/09/27 02:21:46;;;;;;;4.82;3.20;;;21.20;99.90;;;;;;5035175;28;20190;-70
2022/09/27 02:24:21;;;;;;;4.53;2.92;;;21.20;99.90;;;;;;5028108;28;20191;-70
2022/09/27 02:26:59;;;;;;;4.57;2.67;;;21.10;99.90;;;;;;5034564;28;20194;-69
2022/09/27 02:29:39;;;;;;;3.33;2.35;;;21.10;99.90;;;;;;5034625;28;20221;-70
2022/09/27 02:32:10;;;;;;;4.43;2.30;;;21.10;99.90;;;;;;5032797;28;20190;-75
2022/09/27 02:34:44;;;;;;;4.03;2.40;;;21.00;99.90;;;;;;5034543;28;20796;-72
2022/09/27 02:37:15;;;;;;;3.30;2.20;;;21.10;99.90;;;;;;5027019;28;20222;-72
2022/09/27 02:39:46;;;;;;;3.00;2.10;;;21.30;99.90;;;;;;5034545;28;20194;-72
2022/09/27 02:42:17;;;;;;;3.53;2.13;;;21.60;99.90;;;;;;5027284;28;20236;-72
2022/09/27 02:44:48;;;;;;;11.48;4.18;;;21.80;99.90;;;;;;5034378;28;20202;-71
2022/09/27 02:47:51;;;;;;;5.68;2.65;;;21.70;99.90;;;;;;5027024;28;20191;-72
2022/09/27 02:50:55;;;;;;;3.63;2.40;;;21.70;99.90;;;;;;5027325;28;20194;-73
2022/09/27 02:53:40;;;;;;;2.45;2.03;;;21.60;99.90;;;;;;5025766;28;20587;-75
2022/09/27 02:56:19;;;;;;;4.43;2.17;;;21.60;99.90;;;;;;5033950;28;20190;-76
2022/09/27 02:58:59;;;;;;;2.83;2.22;;;21.60;99.90;;;;;;5033904;28;20190;-73
2022/09/27 03:01:35;;;;;;;4.60;2.25;;;21.60;99.90;;;;;;5033883;28;20194;-76
2022/09/27 03:04:12;;;;;;;47.15;5.45;;;21.80;99.90;;;;;;5033795;28;20277;-70
2022/09/27 03:06:48;;;;;;;4.95;2.30;;;21.90;99.90;;;;;;5033091;28;20197;-76
2022/09/27 03:09:22;;;;;;;4.85;2.17;;;21.90;99.90;;;;;;5033779;28;20642;-77
2022/09/27 03:11:53;;;;;;;3.38;2.50;;;21.90;99.90;;;;;;5034017;28;20664;-77
2022/09/27 03:14:24;;;;;;;5.28;3.00;;;21.80;99.90;;;;;;5026010;28;20581;-74
2022/09/27 03:16:55;;;;;;;5.63;2.90;;;21.80;99.90;;;;;;5033294;28;20282;-71
2022/09/27 03:19:26;;;;;;;6.95;3.30;;;21.90;99.90;;;;;;5026449;28;20265;-72
2022/09/27 03:21:59;;;;;;;6.97;3.15;;;22.20;99.90;;;;;;5033750;28;20618;-73
2022/09/27 03:24:30;;;;;;;6.57;2.88;;;22.50;99.90;;;;;;5033183;28;20672;-74
2022/09/27 03:27:00;;;;;;;6.75;3.03;;;22.60;99.90;;;;;;5033488;28;20189;-75
2022/09/27 03:29:31;;;;;;;5.63;2.90;;;22.80;99.90;;;;;;5026333;28;20218;-72
2022/09/27 03:32:02;;;;;;;5.85;2.85;;;22.80;99.90;;;;;;5029657;28;20668;-71
2022/09/27 03:34:33;;;;;;;6.70;3.38;;;22.90;99.90;;;;;;5032876;28;20210;-75
2022/09/27 03:37:06;;;;;;;7.20;3.10;;;22.80;99.90;;;;;;5030733;28;20230;-74
2022/09/27 03:39:37;;;;;;;5.35;2.95;;;22.70;99.90;;;;;;5027426;28;20290;-71
2022/09/27 03:42:08;;;;;;;4.63;2.50;;;22.70;99.90;;;;;;5029994;28;20665;-75
2022/09/27 03:44:39;;;;;;;3.20;2.33;;;22.70;99.90;;;;;;5027989;28;20209;-70
2022/09/27 03:47:10;;;;;;;5.72;2.67;;;22.50;99.90;;;;;;5036065;28;20228;-69
2022/09/27 03:49:41;;;;;;;4.80;2.70;;;22.30;99.90;;;;;;5031625;28;20640;-78
2022/09/27 03:52:14;;;;;;;4.30;2.47;;;22.10;99.90;;;;;;5030064;28;20212;-74
2022/09/27 03:54:44;;;;;;;4.35;2.33;;;21.80;99.90;;;;;;5028734;28;20285;-72
2022/09/27 03:57:15;;;;;;;7.28;2.50;;;21.70;99.90;;;;;;5028705;28;20191;-70
2022/09/27 03:59:46;;;;;;;5.15;2.80;;;21.40;99.90;;;;;;5030923;28;20194;-69
2022/09/27 04:02:17;;;;;;;6.47;2.40;;;21.30;99.90;;;;;;5032652;28;20277;-71
2022/09/27 04:04:48;;;;;;;5.28;2.58;;;21.20;99.90;;;;;;5032349;28;20195;-70
2022/09/27 04:07:20;;;;;;;7.70;2.47;;;21.10;99.90;;;;;;5031968;28;20198;-69
2022/09/27 04:09:51;;;;;;;4.32;2.33;;;21.00;99.90;;;;;;5032613;28;20263;-69
2022/09/27 04:12:23;;;;;;;6.35;2.67;;;20.90;99.90;;;;;;5032905;28;20193;-70
2022/09/27 04:14:54;;;;;;;3.13;2.22;;;20.80;99.90;;;;;;5032415;28;20222;-72
2022/09/27 04:17:26;;;;;;;2.45;2.10;;;20.80;99.90;;;;;;5031257;28;20194;-69
2022/09/27 04:19:57;;;;;;;3.42;2.40;;;21.00;99.90;;;;;;5032537;28;20596;-69
2022/09/27 04:22:29;;;;;;;4.13;2.50;;;20.80;99.90;;;;;;5032586;28;20186;-70
2022/09/27 04:25:00;;;;;;;3.40;2.53;;;20.70;99.90;;;;;;5032799;28;20286;-71
2022/09/27 04:27:31;;;;;;;4.82;2.22;;;20.60;99.90;;;;;;5032117;28;20190;-70
2022/09/27 04:30:02;;;;;;;4.45;2.10;;;20.40;99.90;;;;;;5027999;28;20218;-69
2022/09/27 04:32:33;;;;;;;3.20;1.98;;;20.30;99.90;;;;;;5032030;28;20262;-70
2022/09/27 04:37:52;;;;;;;3.75;1.98;;;20.20;99.90;;;;;;5028286;28;20232;-73
2022/09/27 04:40:24;;;;;;;3.38;1.70;;;20.10;99.90;;;;;;5029331;28;20273;-74
2022/09/27 04:42:55;;;;;;;6.47;2.10;;;20.10;99.90;;;;;;5028507;28;20277;-73
2022/09/27 04:45:26;;;;;;;4.18;2.20;;;20.00;99.90;;;;;;5030824;28;20198;-74
2022/09/27 04:47:57;;;;;;;3.53;1.90;;;20.00;99.90;;;;;;5032151;28;20193;-73
2022/09/27 04:50:28;;;;;;;3.70;1.90;;;19.90;99.90;;;;;;5033685;28;20273;-75
2022/09/27 04:53:01;;;;;;;3.53;1.75;;;19.90;99.90;;;;;;5031571;28;20273;-73
2022/09/27 04:55:32;;;;;;;3.20;1.88;;;19.90;99.90;;;;;;5033625;28;20217;-77
2022/09/27 04:58:04;;;;;;;2.40;1.65;;;19.90;99.90;;;;;;5032376;28;20187;-75
2022/09/27 05:00:35;;;;;;;4.00;1.70;;;19.80;99.90;;;;;;5033016;28;20594;-74
2022/09/27 05:03:06;;;;;;;3.13;1.85;;;19.80;99.90;;;;;;5040330;28;20193;-75
2022/09/27 05:05:37;;;;;;;3.28;1.80;;;19.70;99.90;;;;;;5032051;28;20191;-75
2022/09/27 05:08:10;;;;;;;4.28;1.65;;;19.80;99.90;;;;;;5031665;28;20711;-77
2022/09/27 05:10:40;;;;;;;1.75;1.60;;;19.80;99.90;;;;;;5030978;28;20706;-77
2022/09/27 05:13:11;;;;;;;3.28;1.88;;;19.70;99.90;;;;;;5031459;28;20201;-74
2022/09/27 05:15:42;;;;;;;4.25;1.85;;;19.70;99.90;;;;;;5031505;28;20685;-76
2022/09/27 05:18:13;;;;;;;2.65;1.77;;;19.70;99.90;;;;;;5031644;28;20197;-76
2022/09/27 05:20:45;;;;;;;4.50;2.03;;;19.70;99.90;;;;;;5031800;28;20190;-74
2022/09/27 05:23:18;;;;;;;3.17;2.13;;;19.70;99.90;;;;;;5032023;28;20277;-74
2022/09/27 05:25:49;;;;;;;5.85;1.83;;;19.70;99.90;;;;;;5031449;28;20225;-75
2022/09/27 05:28:20;;;;;;;5.15;1.70;;;19.60;99.90;;;;;;5031200;28;20304;-75
2022/09/27 05:30:50;;;;;;;2.88;1.70;;;19.70;99.90;;;;;;5034896;28;20229;-75
2022/09/27 05:33:21;;;;;;;2.83;1.70;;;19.70;99.90;;;;;;5031749;28;20609;-72
2022/09/27 05:35:56;;;;;;;3.10;1.55;;;19.80;99.90;;;;;;5034367;28;20217;-74
2022/09/27 05:38:29;;;;;;;3.00;1.50;;;19.90;99.90;;;;;;5033175;28;20732;-75
2022/09/27 05:41:00;;;;;;;1.83;1.60;;;20.00;99.90;;;;;;5037457;28;20277;-75
2022/09/27 05:43:31;;;;;;;3.97;1.70;;;20.00;99.90;;;;;;5034141;28;20198;-75
2022/09/27 05:46:04;;;;;;;3.58;1.70;;;19.90;99.90;;;;;;5034140;28;20212;-77
2022/09/27 05:48:35;;;;;;;2.88;1.60;;;19.80;99.90;;;;;;5031634;28;20558;-70
2022/09/27 05:51:06;;;;;;;2.58;1.80;;;19.70;99.90;;;;;;5032047;28;20269;-73
2022/09/27 05:53:39;;;;;;;6.40;1.75;;;19.60;99.90;;;;;;5028138;28;20194;-73
2022/09/27 05:56:10;;;;;;;2.38;1.80;;;19.50;99.90;;;;;;5027026;28;20574;-74
2022/09/27 05:58:41;;;;;;;2.10;1.50;;;19.50;99.90;;;;;;5034361;28;20332;-75
2022/09/27 06:01:12;;;;;;;4.32;1.70;;;19.40;99.90;;;;;;5033771;28;20202;-70
2022/09/27 06:03:43;;;;;;;4.38;1.67;;;19.40;99.90;;;;;;5034653;28;20196;-70
2022/09/27 06:06:14;;;;;;;3.70;1.70;;;19.40;99.90;;;;;;5027037;28;20190;-71
2022/09/27 06:08:48;;;;;;;3.65;1.58;;;19.30;99.90;;;;;;5034728;28;20552;-72
2022/09/27 06:11:18;;;;;;;4.43;1.80;;;19.30;99.90;;;;;;5035423;28;20237;-71
2022/09/27 06:13:49;;;;;;;7.65;2.28;;;19.30;99.90;;;;;;5034902;28;20187;-71
2022/09/27 06:16:20;;;;;;;2.22;1.90;;;19.30;99.90;;;;;;5035058;28;20194;-70
2022/09/27 06:18:51;;;;;;;2.90;1.83;;;19.30;99.90;;;;;;5034124;28;20191;-70
2022/09/27 06:21:22;;;;;;;3.90;1.80;;;19.20;99.90;;;;;;5034313;28;20238;-74
2022/09/27 06:23:55;;;;;;;6.50;2.03;;;19.20;99.90;;;;;;5033984;28;20541;-75
2022/09/27 06:26:27;;;;;;;3.70;2.13;;;19.20;99.90;;;;;;5033548;28;20277;-76
2022/09/27 06:28:58;;;;;;;7.05;2.25;;;19.10;99.90;;;;;;5033784;28;20218;-75
2022/09/27 06:31:29;;;;;;;3.08;2.03;;;19.10;99.90;;;;;;5033500;28;20277;-76
2022/09/27 06:34:00;;;;;;;4.90;2.00;;;19.00;99.90;;;;;;5034129;28;20646;-75
2022/09/27 06:36:32;;;;;;;4.72;1.90;;;19.00;99.90;;;;;;5034184;28;20315;-75
2022/09/27 06:39:04;;;;;;;3.22;1.77;;;18.90;99.90;;;;;;5031489;28;20198;-71
2022/09/27 06:41:36;;;;;;;4.20;1.65;;;18.80;99.90;;;;;;5031279;28;20192;-72
2022/09/27 06:44:06;;;;;;;2.50;1.60;;;18.80;99.90;;;;;;5034480;28;20595;-71
2022/09/27 06:46:38;;;;;;;3.03;1.88;;;18.70;99.90;;;;;;5031454;28;20277;-73
2022/09/27 06:49:12;;;;;;;3.60;1.85;;;18.70;99.90;;;;;;5034349;28;20653;-75
2022/09/27 06:51:43;;;;;;;2.08;1.33;;;18.60;99.90;;;;;;5033453;28;20252;-75
2022/09/27 06:54:16;;;;;;;2.33;1.40;;;18.60;99.90;;;;;;5030879;28;20285;-75
2022/09/27 06:56:50;;;;;;;5.90;1.50;;;18.50;99.90;;;;;;5034513;28;20350;-76
2022/09/27 07:02:07;;;;;;;4.22;1.80;;;18.50;99.90;;;;;;5041961;28;20201;-73
2022/09/27 07:04:38;;;;;;;6.85;1.70;;;18.40;99.90;;;;;;5034258;28;20555;-74
2022/09/27 07:07:09;;;;;;;3.15;1.38;;;18.40;99.90;;;;;;5033604;28;20182;-76
2022/09/27 07:09:42;;;;;;;3.20;1.30;;;18.40;99.90;;;;;;5033918;28;20273;-76
2022/09/27 07:12:13;;;;;;;3.78;1.50;;;18.40;99.90;;;;;;5033372;28;20198;-75
2022/09/27 07:14:44;;;;;;;2.45;1.40;;;18.40;99.90;;;;;;5033891;28;20210;-74
2022/09/27 07:17:14;;;;;;;3.15;1.50;;;18.40;99.90;;;;;;5032479;28;20650;-73
2022/09/27 07:19:45;;;;;;;2.30;1.45;;;18.30;99.90;;;;;;5040699;28;20281;-77
2022/09/27 07:22:16;;;;;;;2.90;1.63;;;18.30;99.90;;;;;;5036278;28;20632;-76
2022/09/27 07:24:49;;;;;;;5.53;1.50;;;18.30;99.90;;;;;;5032285;28;20716;-72
2022/09/27 07:27:21;;;;;;;2.90;1.30;;;18.30;99.90;;;;;;5039121;28;20197;-74
2022/09/27 07:29:51;;;;;;;1.55;1.20;;;18.20;99.90;;;;;;5028543;28;20352;-74
2022/09/27 07:32:22;;;;;;;2.15;1.20;;;18.20;99.90;;;;;;5031939;28;20277;-75
2022/09/27 07:34:53;;;;;;;2.53;1.33;;;18.20;99.90;;;;;;5031565;28;20553;-75
2022/09/27 07:37:24;;;;;;;2.30;1.02;;;18.20;99.90;;;;;;5031376;28;20242;-75
2022/09/27 07:39:57;;;;;;;3.22;1.30;;;18.20;99.90;;;;;;5026996;28;20196;-74
2022/09/27 07:42:28;;;;;;;3.20;1.25;;;18.20;99.90;;;;;;5033155;28;20645;-74
2022/09/27 07:44:59;;;;;;;2.60;1.17;;;18.20;99.90;;;;;;5032342;28;20669;-73
2022/09/27 07:47:30;;;;;;;2.25;1.17;;;18.20;99.90;;;;;;5032443;28;20202;-73
2022/09/27 07:50:04;;;;;;;3.47;1.10;;;18.10;99.90;;;;;;5030458;28;20568;-74
2022/09/27 07:52:42;;;;;;;1.80;1.05;;;18.10;99.90;;;;;;5028802;28;20198;-73
2022/09/27 07:55:16;;;;;;;1.95;1.42;;;18.00;99.90;;;;;;5032122;28;20691;-75
2022/09/27 07:57:47;;;;;;;2.00;1.20;;;18.00;99.90;;;;;;5032508;28;20271;-71
2022/09/27 08:00:20;;;;;;;2.17;1.13;;;18.00;99.90;;;;;;5030924;28;20202;-74
2022/09/27 08:02:51;;;;;;;5.55;1.20;;;17.90;99.90;;;;;;5027700;28;20285;-73
2022/09/27 08:05:22;;;;;;;3.15;1.40;;;17.90;99.90;;;;;;5023166;28;20569;-74
2022/09/27 08:07:57;;;;;;;1.50;1.30;;;17.90;99.90;;;;;;5025058;28;20610;-71
2022/09/27 08:10:31;;;;;;;3.15;1.15;;;17.80;99.90;;;;;;5035328;28;20200;-73
2022/09/27 08:13:04;;;;;;;2.17;1.20;;;17.80;99.90;;;;;;5025662;28;20689;-72
2022/09/27 08:15:37;;;;;;;2.05;1.33;;;17.80;99.90;;;;;;5033026;28;20214;-74
2022/09/27 08:18:09;;;;;;;46.65;42.30;;;17.70;99.90;;;;;;5034725;28;20191;-70
2022/09/27 08:20:40;;;;;;;7.95;7.25;;;17.70;99.90;;;;;;5039547;28;20557;-70
2022/09/27 08:23:11;;;;;;;2.67;1.50;;;17.70;99.90;;;;;;5032875;28;20190;-71
2022/09/27 08:25:44;;;;;;;2.20;1.50;;;17.70;99.90;;;;;;5034648;28;20556;-71
2022/09/27 08:28:15;;;;;;;4.38;1.52;;;17.70;99.90;;;;;;5026156;28;20221;-70
2022/09/27 08:30:45;;;;;;;4.78;1.38;;;17.70;99.90;;;;;;5032542;28;20221;-72
2022/09/27 08:33:16;;;;;;;4.15;1.40;;;17.70;99.90;;;;;;5031665;28;20285;-71
2022/09/27 08:35:47;;;;;;;6.38;1.20;;;17.60;99.90;;;;;;5030451;28;20237;-70
2022/09/27 08:38:18;;;;;;;2.22;1.33;;;17.60;99.90;;;;;;5029735;28;20317;-70
2022/09/27 08:40:57;;;;;;;2.03;1.10;;;17.60;99.90;;;;;;5031417;28;20281;-71
2022/09/27 08:43:38;;;;;;;2.33;1.17;;;17.60;99.90;;;;;;5030299;28;20909;-71
2022/09/27 08:46:25;;;;;;;2.28;1.30;;;17.60;99.90;;;;;;5028712;28;20198;-70
2022/09/27 08:49:05;;;;;;;3.80;1.40;;;17.50;99.90;;;;;;5029900;28;20202;-70
2022/09/27 08:51:37;;;;;;;4.05;1.63;;;17.60;99.90;;;;;;5031679;28;20252;-70
2022/09/27 08:54:13;;;;;;;3.40;1.48;;;17.60;99.90;;;;;;5029875;28;20206;-72
2022/09/27 08:56:46;;;;;;;3.58;1.40;;;17.50;99.90;;;;;;5037076;28;20209;-73
2022/09/27 08:59:20;;;;;;;3.72;1.80;;;17.50;99.90;;;;;;5023790;28;20661;-72
2022/09/27 09:01:52;;;;;;;2.38;1.35;;;17.50;99.90;;;;;;5031846;28;20190;-73
2022/09/27 09:04:28;;;;;;;3.63;1.55;;;17.50;99.90;;;;;;5026652;28;20271;-75
2022/09/27 09:07:09;;;;;;;1.35;1.20;;;17.50;99.90;;;;;;5034404;28;20252;-74
2022/09/27 09:09:49;;;;;;;2.65;1.50;;;17.50;99.90;;;;;;5030074;28;20563;-71
2022/09/27 09:12:47;;;;;;;3.60;1.52;;;17.50;99.90;;;;;;5034069;28;20248;-75
2022/09/27 09:15:27;;;;;;;4.07;1.55;;;17.40;99.90;;;;;;5035873;28;20336;-74
2022/09/27 09:18:12;;;;;;;4.65;2.42;;;17.40;99.90;;;;;;5035271;28;20248;-72
2022/09/27 09:20:57;;;;;;;8.38;4.07;;;17.40;99.90;;;;;;5030397;28;20194;-74
2022/09/27 09:24:02;;;;;;;6.05;2.88;;;17.40;99.90;;;;;;5034568;28;20194;-73
2022/09/27 09:26:40;;;;;;;12.35;7.15;;;17.40;99.90;;;;;;5030729;28;20231;-71
2022/09/27 09:29:29;;;;;;;13.13;7.55;;;17.40;99.90;;;;;;5031593;28;20579;-73
2022/09/27 09:32:09;;;;;;;5.28;1.98;;;17.40;99.90;;;;;;5021589;28;20236;-74
2022/09/27 09:34:44;;;;;;;3.22;1.50;;;17.30;99.90;;;;;;5034331;28;20190;-71
2022/09/27 09:37:21;;;;;;;3.15;1.38;;;17.30;99.90;;;;;;5034416;28;20335;-71
2022/09/27 09:39:56;;;;;;;6.28;1.30;;;17.30;99.90;;;;;;5035394;28;20232;-73
2022/09/27 09:42:31;;;;;;;2.17;1.50;;;17.30;99.90;;;;;;5033950;28;20204;-70
2022/09/27 09:45:07;;;;;;;2.47;1.60;;;17.30;99.90;;;;;;5025920;28;20198;-70
2022/09/27 09:47:40;;;;;;;2.38;1.50;;;17.30;99.90;;;;;;5032317;28;20533;-69
2022/09/27 09:50:20;;;;;;;4.35;2.00;;;17.20;99.90;;;;;;5031296;28;20549;-70
2022/09/27 09:52:55;;;;;;;2.22;1.40;;;17.20;99.90;;;;;;5031065;28;20290;-69
2022/09/27 09:55:28;;;;;;;2.40;1.50;;;17.10;99.90;;;;;;5033412;28;20228;-69
2022/09/27 09:58:09;;;;;;;2.50;1.52;;;17.10;99.90;;;;;;5029543;28;20190;-70
2022/09/27 10:00:43;;;;;;;2.35;1.60;;;17.10;99.90;;;;;;5032221;28;20209;-69
2022/09/27 10:03:14;;;;;;;2.40;1.50;;;17.00;99.90;;;;;;5033059;28;20204;-69
2022/09/27 10:05:46;;;;;;;2.38;1.60;;;17.00;99.90;;;;;;5031890;28;20707;-69
2022/09/27 10:08:21;;;;;;;4.22;1.80;;;17.00;99.90;;;;;;5026436;28;20194;-75
2022/09/27 10:10:52;;;;;;;4.57;2.03;;;17.00;99.90;;;;;;5035113;28;20272;-74
2022/09/27 10:13:24;;;;;;;3.60;1.40;;;17.00;99.90;;;;;;5035095;28;20194;-70
2022/09/27 10:16:03;;;;;;;3.08;1.73;;;17.00;99.90;;;;;;5033873;28;20685;-72
2022/09/27 10:18:37;;;;;;;3.88;1.88;;;17.00;99.90;;;;;;5034888;28;20194;-74
2022/09/27 10:21:13;;;;;;;3.30;2.20;;;16.90;99.90;;;;;;5033765;28;20217;-73
2022/09/27 10:24:04;;;;;;;3.33;2.03;;;16.90;99.90;;;;;;5023299;28;20658;-74
2022/09/27 10:26:36;;;;;;;5.50;2.22;;;16.90;99.90;;;;;;5033798;28;20209;-72
2022/09/27 10:29:30;;;;;;;5.00;2.70;;;16.80;99.90;;;;;;5032760;28;20253;-72
2022/09/27 10:32:04;;;;;;;4.30;2.03;;;16.80;99.90;;;;;;5032341;28;20213;-72
2022/09/27 10:34:38;;;;;;;4.93;1.90;;;16.80;99.90;;;;;;5032436;28;20284;-71
2022/09/27 10:37:19;;;;;;;4.07;2.10;;;16.80;99.90;;;;;;5033376;28;20237;-73
2022/09/27 10:39:52;;;;;;;3.72;1.95;;;16.80;99.90;;;;;;5033332;28;20202;-71
2022/09/27 10:42:35;;;;;;;4.15;1.98;;;16.80;99.90;;;;;;5033530;28;20198;-70
2022/09/27 10:45:28;;;;;;;4.90;1.95;;;16.80;99.90;;;;;;5033036;28;20354;-71
2022/09/27 10:48:02;;;;;;;3.70;1.92;;;16.80;99.90;;;;;;5032201;28;20230;-70
2022/09/27 10:50:38;;;;;;;5.50;1.90;;;16.80;99.90;;;;;;5033613;28;20198;-70
2022/09/27 10:53:14;;;;;;;6.40;2.35;;;16.90;99.90;;;;;;5026322;28;20197;-70
2022/09/27 10:55:48;;;;;;;5.55;2.13;;;17.00;99.90;;;;;;5030836;28;20221;-70
2022/09/27 10:58:22;;;;;;;6.53;2.15;;;17.00;99.90;;;;;;5026313;28;22080;-70
2022/09/27 11:01:01;;;;;;;5.32;2.35;;;17.10;99.90;;;;;;5034717;28;20205;-70
2022/09/27 11:03:37;;;;;;;5.93;2.47;;;17.10;99.90;;;;;;5028367;28;20583;-74
2022/09/27 11:06:28;;;;;;;4.95;2.17;;;17.20;99.90;;;;;;5038181;28;20229;-76
2022/09/27 11:09:17;;;;;;;5.50;2.33;;;17.20;99.90;;;;;;5029032;28;20198;-74
2022/09/27 11:11:49;;;;;;;4.75;2.20;;;17.20;99.90;;;;;;5032788;28;20205;-72
2022/09/27 11:14:27;;;;;;;7.03;2.33;;;17.20;99.90;;;;;;5032496;28;20202;-73
2022/09/27 11:17:15;;;;;;;5.15;2.40;;;17.20;99.90;;;;;;5030834;28;20760;-74
2022/09/27 11:20:12;;;;;;;5.05;2.20;;;17.10;99.90;;;;;;5028508;28;20198;-72
2022/09/27 11:23:05;;;;;;;6.63;2.50;;;17.20;99.90;;;;;;5026794;28;20191;-74
2022/09/27 11:25:45;;;;;;;4.03;2.60;;;17.10;99.90;;;;;;5031456;28;20257;-74
2022/09/27 11:28:25;;;;;;;5.93;3.28;;;17.10;99.90;;;;;;5030491;28;20226;-74
2022/09/27 11:31:03;;;;;;;5.25;3.00;;;17.10;99.90;;;;;;5033524;28;20295;-75
2022/09/27 11:33:53;;;;;;;4.88;3.00;;;17.10;99.90;;;;;;5033236;28;20194;-74
2022/09/27 11:36:38;;;;;;;5.80;2.67;;;17.10;99.90;;;;;;5032137;28;20238;-74
2022/09/27 11:39:15;;;;;;;5.85;2.40;;;17.10;99.90;;;;;;5026718;28;20255;-74
2022/09/27 11:42:04;;;;;;;4.22;2.42;;;17.00;99.90;;;;;;5028537;28;20611;-71
2022/09/27 11:44:55;;;;;;;3.08;2.30;;;16.90;99.90;;;;;;5032723;28;20204;-74
2022/09/27 11:47:36;;;;;;;4.85;2.40;;;16.90;99.90;;;;;;5031755;28;20202;-74
2022/09/27 11:50:34;;;;;;;5.60;2.30;;;16.80;99.90;;;;;;5033441;28;20535;-74
2022/09/27 11:53:18;;;;;;;5.78;2.40;;;16.80;99.90;;;;;;5031315;28;20194;-74
2022/09/27 11:55:57;;;;;;;7.55;2.45;;;16.80;99.90;;;;;;5027778;28;20198;-75
2022/09/27 11:58:35;;;;;;;5.40;2.13;;;16.80;99.90;;;;;;5030445;28;20194;-73
2022/09/27 12:01:19;;;;;;;5.80;2.45;;;16.80;99.90;;;;;;5031029;28;20200;-75
2022/09/27 12:04:12;;;;;;;5.55;2.42;;;16.80;99.90;;;;;;5026286;28;20654;-75
2022/09/27 12:06:51;;;;;;;6.63;2.80;;;16.70;99.90;;;;;;5028678;28;20710;-73
2022/09/27 12:09:30;;;;;;;4.30;2.45;;;16.70;99.90;;;;;;5032793;28;20226;-75
2022/09/27 12:12:05;;;;;;;4.65;2.70;;;16.70;99.90;;;;;;5032622;28;20186;-75
2022/09/27 12:14:42;;;;;;;5.82;2.88;;;16.60;99.90;;;;;;5028263;28;20240;-76
2022/09/27 12:17:18;;;;;;;5.35;3.22;;;16.60;99.90;;;;;;5032059;28;20292;-73
2022/09/27 12:19:52;;;;;;;5.85;3.38;;;16.60;99.90;;;;;;5032941;28;20672;-73
2022/09/27 12:22:28;;;;;;;5.45;3.10;;;16.60;99.90;;;;;;5032755;28;20634;-72
2022/09/27 12:25:02;;;;;;;8.27;3.17;;;16.70;99.90;;;;;;5032104;28;20653;-74
2022/09/27 12:27:39;;;;;;;5.60;3.25;;;16.70;99.90;;;;;;5032238;28;20277;-75
2022/09/27 12:30:14;;;;;;;9.52;3.40;;;16.80;99.90;;;;;;5037016;28;20277;-75
2022/09/27 12:32:54;;;;;;;7.32;3.10;;;16.90;99.90;;;;;;5031968;28;20198;-71
2022/09/27 12:35:29;;;;;;;7.57;2.92;;;16.90;99.90;;;;;;5031522;28;20194;-74
2022/09/27 12:38:06;;;;;;;3.30;3.00;;;16.90;99.90;;;;;;5030346;28;20319;-74
2022/09/27 12:40:42;;;;;;;4.18;3.05;;;16.90;99.90;;;;;;5036087;28;20219;-73
2022/09/27 12:43:19;;;;;;;5.82;2.90;;;17.00;99.90;;;;;;5038879;28;20281;-72
2022/09/27 12:45:57;;;;;;;6.00;3.00;;;17.00;99.90;;;;;;5034691;28;20277;-76
2022/09/27 12:48:37;;;;;;;7.47;3.15;;;17.00;99.90;;;;;;5038023;28;20197;-73
2022/09/27 12:51:11;;;;;;;8.13;3.72;;;17.00;99.90;;;;;;5036274;28;20870;-71
2022/09/27 12:53:59;;;;;;;9.05;3.17;;;17.00;99.90;;;;;;5036026;28;20200;-71
2022/09/27 12:56:44;;;;;;;5.05;3.10;;;17.10;99.90;;;;;;5031168;28;20222;-69
2022/09/27 12:59:48;;;;;;;4.38;2.90;;;17.10;99.90;;;;;;5034921;28;20194;-71
2022/09/27 13:02:41;;;;;;;9.52;3.17;;;17.00;99.90;;;;;;5037662;28;20567;-71
2022/09/27 13:05:32;;;;;;;6.53;2.85;;;17.00;99.90;;;;;;5036645;28;20201;-70
2022/09/27 13:08:24;;;;;;;7.55;3.00;;;17.00;99.90;;;;;;5035622;28;20280;-70
2022/09/27 13:11:02;;;;;;;4.03;2.85;;;17.00;99.90;;;;;;5037942;28;20201;-70
2022/09/27 13:13:36;;;;;;;5.70;2.80;;;17.00;99.90;;;;;;5040164;28;20225;-73
2022/09/27 13:16:08;;;;;;;6.38;3.00;;;17.00;99.90;;;;;;5042123;28;20204;-72
2022/09/27 13:19:00;;;;;;;5.70;2.90;;;17.00;99.90;;;;;;5038035;28;20558;-74
2022/09/27 13:22:01;;;;;;;6.80;3.25;;;17.00;99.90;;;;;;5035892;28;20240;-71
2022/09/27 13:24:49;;;;;;;5.28;3.13;;;17.00;99.90;;;;;;5037811;28;20240;-71
2022/09/27 13:27:43;;;;;;;6.22;3.42;;;17.00;99.90;;;;;;5037049;28;20190;-70
2022/09/27 13:30:48;;;;;;;5.90;3.40;;;17.00;99.90;;;;;;5033824;28;20285;-71
2022/09/27 13:33:41;;;;;;;5.43;3.08;;;17.00;99.90;;;;;;5034517;28;20220;-72
2022/09/27 13:36:36;;;;;;;5.70;3.28;;;16.90;99.90;;;;;;5035191;28;20202;-71